Time;durP1;ratioP1;P1;durP2;ratioP2;P2;SDS_P1;SDS_P2;PMS_P1;PMS_P2;Temp;Humidity;BMP_temperature;BMP_pressure;BME280_temperature;BME280_humidity;BME280_pressure;Samples;Min_cycle;Max_cycle;Signal;HPM_P1;HPM_P2
2022/03/17 00:00:13;;;;;;;32.22;21.52;;;;;;;9.70;97.12;101770.81;5092639;28;20108;-68
2022/03/17 00:02:39;;;;;;;32.45;21.42;;;;;;;9.67;97.51;101791.88;5092911;28;20032;-68
2022/03/17 00:05:10;;;;;;;32.45;21.95;;;;;;;9.66;97.56;101779.50;5092892;28;20028;-68
2022/03/17 00:07:40;;;;;;;33.63;23.33;;;;;;;9.64;98.12;101783.88;5092767;28;20028;-68
2022/03/17 00:10:13;;;;;;;33.13;22.20;;;;;;;9.64;98.36;101781.22;5092682;28;20055;-68
2022/03/17 00:12:39;;;;;;;32.42;22.23;;;;;;;9.62;98.44;101782.94;5092729;28;20036;-69
2022/03/17 00:15:05;;;;;;;33.35;22.85;;;;;;;9.58;99.19;101775.78;5092909;28;20024;-67
2022/03/17 00:17:31;;;;;;;32.78;22.77;;;;;;;9.57;99.35;101771.38;5092351;28;20436;-68
2022/03/17 00:19:56;;;;;;;34.22;21.77;;;;;;;9.55;100.00;101770.44;5092571;28;20095;-68
2022/03/17 00:22:22;;;;;;;32.38;22.38;;;;;;;9.56;100.00;101770.47;5092543;28;20051;-69
2022/03/17 00:24:47;;;;;;;33.33;23.27;;;;;;;9.58;100.00;101770.50;5093921;28;20103;-69
2022/03/17 00:27:12;;;;;;;33.70;22.60;;;;;;;9.56;100.00;101769.59;5096663;28;20401;-69
2022/03/17 00:29:39;;;;;;;33.65;22.75;;;;;;;9.51;100.00;101772.13;5096523;28;20028;-69
2022/03/17 00:32:06;;;;;;;33.03;22.25;;;;;;;9.51;100.00;101771.22;5096598;28;20020;-68
2022/03/17 00:34:31;;;;;;;34.03;23.33;;;;;;;9.49;100.00;101765.03;5096779;28;20105;-69
2022/03/17 00:36:57;;;;;;;34.85;23.27;;;;;;;9.46;100.00;101764.97;5096067;28;20475;-69
2022/03/17 00:39:23;;;;;;;35.53;22.70;;;;;;;9.39;100.00;101766.56;5096276;28;20374;-69
2022/03/17 00:41:49;;;;;;;32.72;22.48;;;;;;;9.35;100.00;101769.97;5087108;28;20060;-69
2022/03/17 00:44:15;;;;;;;33.00;22.00;;;;;;;9.35;100.00;101775.25;5096205;28;20063;-69
2022/03/17 00:46:41;;;;;;;34.55;22.85;;;;;;;9.30;100.00;101775.13;5096358;28;20016;-69
2022/03/17 00:49:07;;;;;;;33.13;21.65;;;;;;;9.28;100.00;101778.63;5096479;28;20028;-68
2022/03/17 00:51:33;;;;;;;33.05;22.38;;;;;;;9.27;100.00;101782.97;5096594;28;20066;-69
2022/03/17 00:53:58;;;;;;;35.08;23.25;;;;;;;9.25;100.00;101782.06;5096283;28;20070;-69
2022/03/17 00:56:24;;;;;;;35.33;22.63;;;;;;;9.27;100.00;101784.75;5096162;28;20028;-68
2022/03/17 00:58:49;;;;;;;35.40;23.83;;;;;;;9.27;100.00;101780.34;5095841;28;20489;-68
2022/03/17 01:01:16;;;;;;;34.13;23.00;;;;;;;9.25;100.00;101787.34;5096050;28;20074;-68
2022/03/17 01:03:43;;;;;;;34.33;23.50;;;;;;;9.22;100.00;101790.78;5095990;28;20027;-67
2022/03/17 01:06:08;;;;;;;34.65;23.38;;;;;;;9.19;100.00;101784.56;5095510;28;20470;-67
2022/03/17 01:08:33;;;;;;;34.75;24.20;;;;;;;9.18;100.00;101783.66;5095899;28;20077;-67
2022/03/17 01:10:59;;;;;;;34.75;24.10;;;;;;;9.20;100.00;101792.50;5096126;28;20051;-67
2022/03/17 01:13:24;;;;;;;34.45;23.77;;;;;;;9.22;100.00;101789.91;5095741;28;20024;-67
2022/03/17 01:15:49;;;;;;;35.00;23.65;;;;;;;9.28;100.00;101787.41;5095669;28;20478;-67
2022/03/17 01:18:15;;;;;;;35.50;23.77;;;;;;;9.30;100.00;101784.81;5095843;28;20052;-67
2022/03/17 01:20:41;;;;;;;35.20;23.83;;;;;;;9.31;100.00;101787.47;5095327;28;20070;-67
2022/03/17 01:23:07;;;;;;;36.05;23.67;;;;;;;9.32;100.00;101780.44;5095894;28;20035;-67
2022/03/17 01:25:32;;;;;;;33.38;22.63;;;;;;;9.32;100.00;101775.16;5095513;28;20519;-67
2022/03/17 01:27:58;;;;;;;35.38;23.20;;;;;;;9.31;100.00;101766.38;5095463;28;20028;-67
2022/03/17 01:30:24;;;;;;;34.05;22.92;;;;;;;9.35;100.00;101765.59;5095491;28;20379;-67
2022/03/17 01:32:49;;;;;;;34.83;23.02;;;;;;;9.37;100.00;101777.06;5095290;28;20382;-67
2022/03/17 01:35:15;;;;;;;34.20;23.02;;;;;;;9.46;100.00;101778.16;5095210;28;20028;-67
2022/03/17 01:37:40;;;;;;;34.30;24.05;;;;;;;9.49;100.00;101783.50;5093994;28;20510;-67
2022/03/17 01:40:07;;;;;;;35.97;23.55;;;;;;;9.52;100.00;101773.00;5095162;28;20024;-68
2022/03/17 01:42:33;;;;;;;34.03;22.52;;;;;;;9.54;100.00;101768.69;5095327;28;20356;-67
2022/03/17 01:44:58;;;;;;;34.33;24.10;;;;;;;9.54;100.00;101772.19;5080421;28;20032;-67
2022/03/17 01:47:26;;;;;;;34.08;23.13;;;;;;;9.61;100.00;101778.53;5090731;28;20028;-69
2022/03/17 01:49:52;;;;;;;35.97;25.15;;;;;;;9.56;100.00;101785.44;5094029;28;20016;-68
2022/03/17 01:52:18;;;;;;;34.78;23.42;;;;;;;9.53;100.00;101774.81;5092721;28;20074;-68
2022/03/17 01:54:45;;;;;;;34.03;21.90;;;;;;;9.54;100.00;101787.16;5095075;28;20060;-68
2022/03/17 01:57:11;;;;;;;37.40;24.63;;;;;;;9.51;100.00;101777.41;5094944;28;20028;-68
2022/03/17 01:59:38;;;;;;;36.67;23.60;;;;;;;9.49;100.00;101780.88;5093632;28;20027;-69
2022/03/17 02:02:06;;;;;;;35.00;23.33;;;;;;;9.51;100.00;101779.13;5094590;28;20387;-69
2022/03/17 02:04:31;;;;;;;34.30;22.70;;;;;;;9.50;100.00;101772.09;5094675;28;20383;-68
2022/03/17 02:06:56;;;;;;;35.58;24.85;;;;;;;9.51;100.00;101763.31;5094617;28;20097;-67
2022/03/17 02:09:26;;;;;;;35.88;24.75;;;;;;;9.51;100.00;101771.22;5094645;28;20030;-68
2022/03/17 02:15:00;;;;;;;37.90;24.42;;;;;;;9.47;100.00;101786.09;5088815;28;20047;-68
2022/03/17 02:17:27;;;;;;;35.00;24.02;;;;;;;9.54;100.00;101787.16;5094174;28;20028;-68
2022/03/17 02:19:53;;;;;;;35.20;23.92;;;;;;;9.52;100.00;101794.13;5094797;28;20024;-68
2022/03/17 02:22:20;;;;;;;35.33;23.50;;;;;;;9.54;100.00;101788.03;5094258;28;20050;-68
2022/03/17 02:27:38;;;;;;;36.20;24.80;;;;;;;9.58;100.00;101792.53;5086897;28;20061;-67
2022/03/17 02:30:05;;;;;;;35.38;24.05;;;;;;;9.61;100.00;101804.94;5087076;28;20051;-68
2022/03/17 02:32:30;;;;;;;37.63;24.75;;;;;;;9.61;100.00;101804.94;5086129;28;20022;-67
2022/03/17 02:34:56;;;;;;;37.80;25.33;;;;;;;9.64;100.00;101804.09;5087379;28;20103;-68
2022/03/17 02:37:24;;;;;;;37.90;24.55;;;;;;;9.59;100.00;101811.91;5080320;28;20052;-68
2022/03/17 02:39:49;;;;;;;36.65;24.40;;;;;;;9.59;100.00;101806.63;5093833;28;20032;-68
2022/03/17 02:42:14;;;;;;;37.05;24.58;;;;;;;9.58;100.00;101816.31;5094031;28;20383;-68
2022/03/17 02:44:40;;;;;;;37.92;25.42;;;;;;;9.60;100.00;101819.84;5091785;28;20069;-68
2022/03/17 02:47:06;;;;;;;39.22;26.00;;;;;;;9.66;100.00;101816.47;5093859;28;20522;-68
2022/03/17 02:49:32;;;;;;;41.40;27.30;;;;;;;9.76;100.00;101825.50;5093912;28;20050;-69
2022/03/17 02:51:58;;;;;;;41.88;28.23;;;;;;;9.81;100.00;101841.44;5093963;28;20103;-68
2022/03/17 02:54:23;;;;;;;43.33;30.63;;;;;;;9.90;100.00;101841.66;5093586;28;20056;-68
2022/03/17 02:56:48;;;;;;;44.55;32.35;;;;;;;9.77;100.00;101843.13;5093417;28;20085;-68
2022/03/17 02:59:14;;;;;;;50.33;36.03;;;;;;;9.61;100.00;101852.44;5093772;28;20032;-67
2022/03/17 03:01:39;;;;;;;49.72;36.25;;;;;;;9.53;100.00;101864.56;5093479;28;20021;-68
2022/03/17 03:04:05;;;;;;;50.42;37.42;;;;;;;9.49;100.00;101865.31;5093508;28;20466;-69
2022/03/17 03:06:30;;;;;;;50.17;34.83;;;;;;;9.47;100.00;101856.50;5093617;28;20128;-67
2022/03/17 03:08:56;;;;;;;43.28;31.45;;;;;;;9.34;100.00;101873.75;5093331;28;20023;-68
2022/03/17 03:11:21;;;;;;;43.55;26.85;;;;;;;9.32;100.00;101880.72;5092445;28;20058;-67
2022/03/17 03:13:46;;;;;;;39.13;26.77;;;;;;;9.23;100.00;101878.72;5093323;28;20078;-67
2022/03/17 03:16:13;;;;;;;39.53;29.25;;;;;;;9.07;100.00;101890.63;5093017;28;20028;-67
2022/03/17 03:18:39;;;;;;;40.60;26.88;;;;;;;9.02;100.00;101901.06;5081043;28;20035;-67
2022/03/17 03:21:06;;;;;;;35.80;24.73;;;;;;;8.99;100.00;101916.78;5093154;28;20028;-67
2022/03/17 03:23:32;;;;;;;31.88;20.13;;;;;;;8.98;100.00;101914.13;5093101;28;20020;-67
2022/03/17 03:25:57;;;;;;;30.52;20.70;;;;;;;8.86;100.00;101918.19;5093587;28;20027;-67
2022/03/17 03:28:22;;;;;;;30.20;19.52;;;;;;;8.84;100.00;101932.16;5093119;28;20024;-67
2022/03/17 03:30:50;;;;;;;33.25;20.88;;;;;;;8.64;100.00;101935.13;5093176;28;20043;-68
2022/03/17 03:33:15;;;;;;;31.80;20.80;;;;;;;8.62;100.00;101923.66;5093299;28;20024;-67
2022/03/17 03:38:24;;;;;;;31.35;22.13;;;;;;;8.54;100.00;101952.41;5088978;28;20552;-67
2022/03/17 03:40:50;;;;;;;32.60;22.08;;;;;;;8.45;100.00;101964.44;5093176;28;20032;-67
2022/03/17 03:43:15;;;;;;;33.75;22.88;;;;;;;8.29;100.00;101961.28;5093051;28;20375;-67
2022/03/17 03:45:40;;;;;;;35.83;24.13;;;;;;;8.22;100.00;101959.28;5092762;28;20062;-67
2022/03/17 03:48:06;;;;;;;34.65;23.77;;;;;;;8.26;100.00;101970.84;5093024;28;20016;-67
2022/03/17 03:50:31;;;;;;;35.33;23.63;;;;;;;8.20;100.00;101982.06;5092919;28;20042;-67
2022/03/17 03:52:57;;;;;;;37.13;26.58;;;;;;;8.11;100.00;102000.19;5092777;28;20024;-67
2022/03/17 03:55:23;;;;;;;36.85;25.85;;;;;;;8.09;100.00;101986.97;5092870;28;20028;-67
2022/03/17 03:57:50;;;;;;;40.78;30.10;;;;;;;8.26;100.00;102002.44;5092669;28;20035;-67
2022/03/17 04:02:56;;;;;;;40.60;26.77;;;;;;;8.05;100.00;102023.69;5092942;28;20064;-68
2022/03/17 04:05:40;;;;;;;40.72;26.27;;;;;;;8.04;100.00;102035.97;5093065;28;20369;-68
2022/03/17 04:08:05;;;;;;;40.90;27.55;;;;;;;7.99;100.00;102034.91;5093269;28;20081;-68
2022/03/17 04:10:31;;;;;;;41.00;29.02;;;;;;;7.98;100.00;102052.47;5092794;28;20463;-68
2022/03/17 04:12:57;;;;;;;45.08;30.92;;;;;;;7.82;100.00;102052.75;5092698;28;20082;-68
2022/03/17 04:15:22;;;;;;;42.78;28.55;;;;;;;7.67;100.00;102059.28;5092615;28;20383;-67
2022/03/17 04:17:49;;;;;;;41.35;29.45;;;;;;;7.69;100.00;102072.50;5092355;28;20020;-67
2022/03/17 04:20:15;;;;;;;43.22;30.15;;;;;;;7.72;100.00;102084.84;5092707;28;20031;-67
2022/03/17 04:22:41;;;;;;;39.10;26.80;;;;;;;7.55;100.00;102090.41;5092994;28;20425;-67
2022/03/17 04:25:07;;;;;;;39.25;26.13;;;;;;;7.54;100.00;102091.25;5092495;28;20026;-67
2022/03/17 04:27:32;;;;;;;36.72;23.30;;;;;;;7.67;100.00;102105.75;5092566;28;20027;-67
2022/03/17 04:29:58;;;;;;;33.38;21.77;;;;;;;7.55;100.00;102106.19;5092574;28;20028;-67
2022/03/17 04:32:23;;;;;;;35.30;23.75;;;;;;;7.51;100.00;102117.44;5092641;28;20031;-69
2022/03/17 04:34:49;;;;;;;36.60;24.88;;;;;;;7.38;100.00;102133.63;5092591;28;20536;-67
2022/03/17 04:37:14;;;;;;;36.20;21.88;;;;;;;7.21;100.00;102133.88;5092305;28;20024;-67
2022/03/17 04:39:39;;;;;;;38.75;23.80;;;;;;;7.30;100.00;102141.22;5084264;28;20025;-67
2022/03/17 04:42:05;;;;;;;38.95;21.95;;;;;;;7.20;100.00;102155.75;5092524;28;20056;-67
2022/03/17 04:44:31;;;;;;;38.85;24.20;;;;;;;7.16;100.00;102138.06;5092120;28;20111;-69
2022/03/17 04:46:57;;;;;;;33.85;18.38;;;;;;;7.31;100.00;102143.00;5092561;28;20378;-67
2022/03/17 04:49:22;;;;;;;35.75;20.05;;;;;;;7.31;100.00;102164.03;5092628;28;20081;-67
2022/03/17 04:51:48;;;;;;;36.58;22.15;;;;;;;7.13;100.00;102169.50;5092185;28;20028;-67
2022/03/17 04:54:13;;;;;;;37.25;20.42;;;;;;;7.17;100.00;102174.03;5092643;28;20033;-67
2022/03/17 04:56:38;;;;;;;36.70;23.13;;;;;;;7.22;100.00;102184.75;5092514;28;20042;-67
2022/03/17 04:59:04;;;;;;;36.85;22.45;;;;;;;7.29;100.00;102190.28;5092103;28;20402;-67
2022/03/17 05:01:29;;;;;;;39.05;24.33;;;;;;;7.08;100.00;102205.25;5092090;28;20378;-67
2022/03/17 05:03:54;;;;;;;36.17;22.60;;;;;;;7.11;100.00;102203.63;5092322;28;20486;-67
2022/03/17 05:06:20;;;;;;;37.15;23.08;;;;;;;7.10;100.00;102216.72;5092076;28;20055;-67
2022/03/17 05:08:45;;;;;;;37.25;22.23;;;;;;;7.17;100.00;102218.75;5092065;28;20142;-67
2022/03/17 05:11:10;;;;;;;39.15;25.20;;;;;;;7.14;100.00;102243.19;5092544;28;20459;-69
2022/03/17 05:13:39;;;;;;;34.30;20.92;;;;;;;7.09;100.00;102244.75;5095926;28;20059;-67
2022/03/17 05:16:05;;;;;;;36.60;20.40;;;;;;;7.24;100.00;102251.47;5095471;28;20035;-67
2022/03/17 05:18:31;;;;;;;34.58;18.83;;;;;;;6.99;100.00;102255.72;5096023;28;20123;-67
2022/03/17 05:20:56;;;;;;;33.42;18.05;;;;;;;6.84;100.00;102274.38;5095483;28;20115;-67
2022/03/17 05:23:22;;;;;;;31.92;18.00;;;;;;;6.98;100.00;102269.69;5095879;28;20032;-67
2022/03/17 05:25:49;;;;;;;33.63;17.83;;;;;;;7.00;100.00;102283.78;5095796;28;20021;-67
2022/03/17 05:28:15;;;;;;;31.23;16.13;;;;;;;6.91;100.00;102289.56;5095704;28;20099;-67
2022/03/17 05:30:42;;;;;;;31.55;16.15;;;;;;;6.83;100.00;102293.63;5085284;28;20432;-67
2022/03/17 05:33:07;;;;;;;30.02;15.50;;;;;;;6.94;100.00;102296.69;5078718;28;20029;-66
2022/03/17 05:35:34;;;;;;;27.27;14.18;;;;;;;6.91;100.00;102293.94;5094629;28;20023;-67
2022/03/17 05:38:03;;;;;;;27.48;14.35;;;;;;;6.88;100.00;102304.31;5095160;28;20040;-67
2022/03/17 05:40:28;;;;;;;26.88;13.73;;;;;;;7.02;100.00;102307.53;5092639;28;20526;-67
2022/03/17 05:42:57;;;;;;;29.70;14.63;;;;;;;6.82;100.00;102315.47;5095076;28;20016;-66
2022/03/17 05:45:26;;;;;;;29.30;13.52;;;;;;;7.00;100.00;102333.75;5087070;28;20032;-66
2022/03/17 05:47:53;;;;;;;27.42;13.43;;;;;;;6.94;100.00;102336.13;5086920;28;20526;-66
2022/03/17 05:50:22;;;;;;;26.80;13.10;;;;;;;6.83;100.00;102337.38;5095033;28;20144;-66
2022/03/17 05:52:48;;;;;;;27.38;11.90;;;;;;;6.89;100.00;102342.94;5094991;28;20035;-67
2022/03/17 05:55:16;;;;;;;25.50;11.43;;;;;;;6.88;100.00;102347.28;5095043;28;20043;-67
2022/03/17 05:57:47;;;;;;;25.40;11.43;;;;;;;6.91;100.00;102359.66;5095051;28;20382;-66
2022/03/17 06:00:15;;;;;;;24.73;11.75;;;;;;;6.82;100.00;102367.16;5094691;28;20093;-66
2022/03/17 06:02:40;;;;;;;25.25;11.77;;;;;;;6.74;100.00;102366.78;5094845;28;20497;-66
2022/03/17 06:05:07;;;;;;;24.77;10.70;;;;;;;6.78;100.00;102381.88;5094736;28;20020;-66
2022/03/17 06:07:43;;;;;;;23.80;9.80;;;;;;;6.71;100.00;102385.94;5094751;28;20031;-67
2022/03/17 06:10:13;;;;;;;23.17;9.30;;;;;;;6.92;100.00;102388.66;5094719;28;20028;-67
2022/03/17 06:12:39;;;;;;;23.95;9.57;;;;;;;6.89;100.00;102393.78;5094460;28;20028;-66
2022/03/17 06:15:07;;;;;;;23.02;9.52;;;;;;;6.84;100.00;102404.91;5094410;28;20417;-66
2022/03/17 06:17:49;;;;;;;25.27;10.50;;;;;;;6.74;100.00;102416.72;5094191;28;20032;-67
2022/03/17 06:20:20;;;;;;;23.92;10.32;;;;;;;6.66;100.00;102424.28;5094748;28;20352;-67
2022/03/17 06:22:48;;;;;;;24.52;10.57;;;;;;;6.60;100.00;102432.78;5094324;28;20039;-66
2022/03/17 06:25:16;;;;;;;25.05;11.55;;;;;;;6.49;100.00;102428.75;5092115;28;20038;-66
2022/03/17 06:27:43;;;;;;;25.42;11.43;;;;;;;6.54;100.00;102431.59;5094187;28;20028;-67
2022/03/17 06:30:11;;;;;;;27.63;12.00;;;;;;;6.49;100.00;102447.16;5094482;28;20425;-66
2022/03/17 06:32:42;;;;;;;26.38;11.50;;;;;;;6.36;100.00;102450.03;5094217;28;20099;-67
2022/03/17 06:35:09;;;;;;;27.02;11.35;;;;;;;6.51;100.00;102453.38;5094011;28;20111;-68
2022/03/17 06:37:36;;;;;;;25.45;11.60;;;;;;;6.60;100.00;102466.06;5094085;28;20101;-67
2022/03/17 06:40:03;;;;;;;23.70;10.57;;;;;;;6.60;100.00;102468.69;5093837;28;20106;-67
2022/03/17 06:42:28;;;;;;;25.73;10.65;;;;;;;6.70;100.00;102483.13;5093869;28;20024;-67
2022/03/17 06:44:53;;;;;;;25.98;10.07;;;;;;;6.70;100.00;102480.50;5084165;28;20486;-67
2022/03/17 06:47:19;;;;;;;23.98;9.60;;;;;;;6.65;100.00;102493.44;5081249;28;20082;-66
2022/03/17 06:49:44;;;;;;;23.27;9.85;;;;;;;6.65;100.00;102489.91;5085984;28;20475;-67
2022/03/17 06:52:09;;;;;;;23.33;7.97;;;;;;;6.69;100.00;102505.00;5079058;28;20463;-67
2022/03/17 06:54:35;;;;;;;23.08;7.95;;;;;;;6.78;100.00;102508.94;5086087;28;20401;-66
2022/03/17 06:57:00;;;;;;;21.10;6.70;;;;;;;6.84;100.00;102507.44;5082301;28;20382;-67
2022/03/17 06:59:25;;;;;;;21.58;6.68;;;;;;;6.85;100.00;102515.41;5076196;28;20024;-67
2022/03/17 07:01:51;;;;;;;20.83;6.43;;;;;;;6.86;100.00;102518.91;5084923;28;20085;-66
2022/03/17 07:04:16;;;;;;;20.05;5.13;;;;;;;7.03;100.00;102519.69;5084022;28;20514;-66
2022/03/17 07:06:42;;;;;;;21.52;5.32;;;;;;;6.88;100.00;102536.56;5081411;28;20069;-65
2022/03/17 07:09:07;;;;;;;20.17;4.78;;;;;;;6.85;100.00;102528.53;5078534;28;20016;-66
2022/03/17 07:11:32;;;;;;;18.60;3.80;;;;;;;6.92;100.00;102543.75;5080413;28;20059;-66
2022/03/17 07:13:58;;;;;;;17.85;4.00;;;;;;;6.92;100.00;102540.25;5081049;28;20039;-66
2022/03/17 07:16:23;;;;;;;18.00;4.05;;;;;;;6.85;100.00;102549.56;5078183;28;20450;-66
2022/03/17 07:18:49;;;;;;;18.05;4.00;;;;;;;6.87;100.00;102552.25;5083946;28;20025;-67
2022/03/17 07:21:15;;;;;;;17.20;3.85;;;;;;;6.88;100.00;102561.97;5080566;28;20197;-65
2022/03/17 07:23:41;;;;;;;17.90;3.97;;;;;;;6.88;100.00;102569.84;5079846;28;20032;-66
2022/03/17 07:26:06;;;;;;;20.70;4.00;;;;;;;6.83;100.00;102568.72;5081640;28;20035;-65
2022/03/17 07:28:31;;;;;;;18.52;3.90;;;;;;;6.92;100.00;102570.06;5079714;28;20445;-65
2022/03/17 07:30:56;;;;;;;18.67;4.22;;;;;;;6.86;100.00;102588.19;5079508;28;20060;-65
2022/03/17 07:33:22;;;;;;;18.42;4.03;;;;;;;6.75;100.00;102597.28;5080233;28;20041;-67
2022/03/17 07:35:47;;;;;;;16.60;4.07;;;;;;;6.77;100.00;102591.28;5076236;28;20055;-66
2022/03/17 07:38:16;;;;;;;20.33;4.10;;;;;;;6.83;100.00;102598.56;5081667;28;20488;-68
2022/03/17 07:40:42;;;;;;;21.00;4.28;;;;;;;6.83;100.00;102614.34;5077189;28;20057;-67
2022/03/17 07:43:07;;;;;;;17.02;3.45;;;;;;;6.91;100.00;102618.19;5079438;28;20480;-66
2022/03/17 07:45:34;;;;;;;20.35;3.72;;;;;;;6.94;100.00;102615.72;5079527;28;20031;-68
2022/03/17 07:47:59;;;;;;;19.58;3.95;;;;;;;6.88;100.00;102614.53;5074885;28;20029;-66
2022/03/17 07:50:25;;;;;;;20.42;3.97;;;;;;;6.78;100.00;102619.34;5076569;28;20040;-66
2022/03/17 07:52:50;;;;;;;19.42;3.78;;;;;;;6.92;100.00;102625.28;5061791;28;20463;-66
2022/03/17 07:55:17;;;;;;;22.13;4.07;;;;;;;6.92;100.00;102627.91;5076542;28;20028;-66
2022/03/17 07:57:43;;;;;;;19.15;3.60;;;;;;;7.00;100.00;102632.63;5074359;28;20487;-65
2022/03/17 08:00:12;;;;;;;19.55;3.90;;;;;;;7.09;100.00;102635.69;5076120;28;20060;-66
2022/03/17 08:02:40;;;;;;;20.92;4.03;;;;;;;7.21;100.00;102643.25;5074817;28;20119;-65
2022/03/17 08:05:06;;;;;;;18.60;3.47;;;;;;;7.24;100.00;102652.19;5076089;28;20134;-65
2022/03/17 08:07:32;;;;;;;21.48;3.75;;;;;;;7.24;100.00;102660.09;5074268;28;20032;-66
2022/03/17 08:09:58;;;;;;;20.52;3.55;;;;;;;7.30;100.00;102657.75;5074765;28;20016;-66
2022/03/17 08:12:26;;;;;;;20.63;3.55;;;;;;;7.32;100.00;102670.97;5073082;28;20463;-66
2022/03/17 08:14:53;;;;;;;21.23;3.30;;;;;;;7.36;100.00;102672.03;5073107;28;20029;-66
2022/03/17 08:17:18;;;;;;;22.17;3.40;;;;;;;7.43;100.00;102674.13;5076879;28;20498;-66
2022/03/17 08:19:44;;;;;;;19.63;3.17;;;;;;;7.55;100.00;102668.50;5078324;28;20053;-66
2022/03/17 08:22:09;;;;;;;18.65;3.33;;;;;;;7.59;100.00;102686.25;5077188;28;20506;-67
2022/03/17 08:24:34;;;;;;;20.50;3.00;;;;;;;7.72;100.00;102687.69;5079487;28;20052;-71
2022/03/17 08:27:02;;;;;;;20.40;3.53;;;;;;;7.82;100.00;102695.16;5089282;28;20149;-70
2022/03/17 08:29:27;;;;;;;17.95;3.00;;;;;;;7.82;100.00;102703.06;5092711;28;20024;-70
2022/03/17 08:31:53;;;;;;;21.08;3.10;;;;;;;7.90;100.00;102709.59;5092356;28;20493;-69
2022/03/17 08:34:18;;;;;;;18.95;3.00;;;;;;;8.02;100.00;102722.41;5092531;28;20106;-70
2022/03/17 08:36:44;;;;;;;17.73;2.97;;;;;;;8.10;100.00;102713.13;5092665;28;20027;-68
2022/03/17 08:39:10;;;;;;;16.30;2.70;;;;;;;8.23;100.00;102719.84;5092069;28;20044;-70
2022/03/17 08:41:35;;;;;;;19.50;2.90;;;;;;;8.34;100.00;102721.22;5092101;28;20031;-70
2022/03/17 08:44:00;;;;;;;21.35;2.95;;;;;;;8.37;100.00;102739.78;5092379;28;20020;-68
2022/03/17 08:49:18;;;;;;;17.65;2.78;;;;;;;8.37;100.00;102745.06;5090117;28;20520;-70
2022/03/17 08:51:49;;;;;;;20.30;3.30;;;;;;;8.28;100.00;102755.16;5096172;28;20056;-68
2022/03/17 08:54:15;;;;;;;19.80;3.15;;;;;;;8.33;100.00;102758.00;5096138;28;20533;-66
2022/03/17 08:56:40;;;;;;;19.55;3.10;;;;;;;8.35;100.00;102754.59;5096351;28;20107;-66
2022/03/17 08:59:06;;;;;;;17.75;3.00;;;;;;;8.49;100.00;102760.53;5096042;28;20024;-66
2022/03/17 09:01:32;;;;;;;20.00;3.15;;;;;;;8.45;100.00;102760.34;5096020;28;20027;-66
2022/03/17 09:03:57;;;;;;;20.25;3.10;;;;;;;8.48;100.00;102757.84;5095863;28;20027;-66
2022/03/17 09:06:23;;;;;;;17.60;3.15;;;;;;;8.55;100.00;102762.53;5095801;28;20057;-66
2022/03/17 09:08:48;;;;;;;18.70;2.92;;;;;;;8.52;100.00;102767.69;5096065;28;20035;-66
2022/03/17 09:11:14;;;;;;;19.77;2.95;;;;;;;8.34;100.00;102765.09;5095440;28;20031;-65
2022/03/17 09:13:41;;;;;;;19.00;3.30;;;;;;;8.35;100.00;102778.31;5095788;28;20073;-66
2022/03/17 09:16:07;;;;;;;20.92;3.25;;;;;;;8.32;100.00;102778.19;5095685;28;20030;-66
2022/03/17 09:18:32;;;;;;;19.33;3.10;;;;;;;8.30;100.00;102790.41;5095482;28;20467;-66
2022/03/17 09:21:00;;;;;;;18.23;3.08;;;;;;;8.43;100.00;102796.22;5095373;28;20066;-66
2022/03/17 09:23:25;;;;;;;17.88;3.00;;;;;;;8.43;100.00;102804.13;5095621;28;20442;-65
2022/03/17 09:25:51;;;;;;;17.00;3.00;;;;;;;8.47;100.00;102803.47;5095199;28;20060;-66
2022/03/17 09:28:16;;;;;;;18.60;3.00;;;;;;;8.57;100.00;102808.31;5095240;28;20127;-66
2022/03/17 09:30:42;;;;;;;17.23;3.05;;;;;;;8.68;100.00;102803.53;5095556;28;20027;-65
2022/03/17 09:33:07;;;;;;;20.75;3.00;;;;;;;8.50;100.00;102815.06;5095215;28;20020;-66
2022/03/17 09:35:36;;;;;;;16.27;2.80;;;;;;;8.41;100.00;102808.44;5087026;28;20470;-66
2022/03/17 09:38:03;;;;;;;19.10;3.28;;;;;;;8.50;100.00;102819.41;5095035;28;20487;-66
2022/03/17 09:40:29;;;;;;;19.35;2.85;;;;;;;8.58;100.00;102822.38;5095232;28;20041;-67
2022/03/17 09:43:18;;;;;;;20.15;3.42;;;;;;;8.76;100.00;102822.31;5095294;28;20097;-65
2022/03/17 09:45:41;;;;;;;20.23;3.33;;;;;;;8.92;100.00;102827.38;5088375;28;20038;-66
2022/03/17 09:48:10;;;;;;;17.98;3.38;;;;;;;9.05;100.00;102834.97;5095367;28;20039;-66
2022/03/17 09:50:37;;;;;;;18.23;2.90;;;;;;;9.10;99.43;102834.28;5087485;28;20027;-66
2022/03/17 09:53:02;;;;;;;18.40;3.00;;;;;;;9.12;100.00;102830.00;5094723;28;20028;-66
2022/03/17 09:55:27;;;;;;;18.38;3.20;;;;;;;9.23;99.68;102840.16;5092973;28;20411;-66
2022/03/17 09:57:53;;;;;;;17.30;3.20;;;;;;;9.18;94.16;102849.59;5093701;28;20047;-67
2022/03/17 10:00:19;;;;;;;15.63;3.08;;;;;;;9.07;92.77;102851.78;5094347;28;20024;-66
2022/03/17 10:02:44;;;;;;;15.25;2.90;;;;;;;9.02;92.49;102850.69;5094441;28;20032;-67
2022/03/17 10:05:11;;;;;;;18.50;3.10;;;;;;;8.97;93.68;102862.78;5094052;28;20103;-67
2022/03/17 10:07:38;;;;;;;15.60;2.80;;;;;;;9.10;95.60;102876.50;5094378;28;20016;-67
2022/03/17 10:10:04;;;;;;;17.98;3.17;;;;;;;9.19;92.68;102879.53;5094617;28;20478;-67
2022/03/17 10:12:31;;;;;;;17.88;3.15;;;;;;;9.16;93.30;102876.75;5094583;28;20433;-67
2022/03/17 10:14:58;;;;;;;16.15;2.78;;;;;;;9.20;93.65;102881.31;5094580;28;20020;-66
2022/03/17 10:17:37;;;;;;;16.77;2.97;;;;;;;9.17;92.33;102886.47;5094554;28;20059;-67
2022/03/17 10:20:13;;;;;;;17.80;3.00;;;;;;;9.18;94.73;102894.47;5086725;28;20069;-66
2022/03/17 10:22:44;;;;;;;17.63;3.05;;;;;;;9.40;94.53;102893.63;5087930;28;20034;-67
2022/03/17 10:25:18;;;;;;;20.63;3.35;;;;;;;9.63;94.52;102898.97;5086124;28;20498;-66
2022/03/17 10:27:45;;;;;;;16.70;3.08;;;;;;;9.74;92.52;102912.59;5087575;28;20012;-67
2022/03/17 10:30:12;;;;;;;19.33;3.03;;;;;;;9.72;89.65;102907.25;5093834;28;20355;-65
2022/03/17 10:32:38;;;;;;;19.17;3.10;;;;;;;9.64;91.46;102913.97;5094123;28;20020;-67
2022/03/17 10:35:08;;;;;;;19.15;3.40;;;;;;;9.65;91.22;102921.03;5091606;28;20028;-67
2022/03/17 10:37:36;;;;;;;17.48;3.30;;;;;;;9.82;91.85;102934.94;5094144;28;20134;-70
2022/03/17 10:40:08;;;;;;;19.27;3.40;;;;;;;9.97;89.71;102925.84;5094150;28;20129;-68
2022/03/17 10:42:33;;;;;;;19.67;3.50;;;;;;;10.08;89.52;102935.09;5093858;28;20078;-68
2022/03/17 10:45:07;;;;;;;18.63;3.15;;;;;;;10.07;90.67;102941.22;5076904;28;20036;-65
2022/03/17 10:47:36;;;;;;;16.35;3.25;;;;;;;9.96;88.28;102932.88;5076693;28;20067;-66
2022/03/17 10:50:05;;;;;;;19.42;3.28;;;;;;;9.84;89.90;102942.94;5071545;28;20439;-65
2022/03/17 10:52:56;;;;;;;18.88;3.38;;;;;;;9.89;90.60;102947.56;5076119;28;20032;-66
2022/03/17 10:55:26;;;;;;;19.92;3.45;;;;;;;9.85;91.82;102955.31;5076769;28;20031;-65
2022/03/17 10:57:54;;;;;;;19.65;3.60;;;;;;;9.76;90.27;102962.00;5073385;28;20094;-65
2022/03/17 11:00:25;;;;;;;17.13;3.42;;;;;;;9.39;91.61;102965.75;5079131;28;20024;-65
2022/03/17 11:02:53;;;;;;;19.60;3.45;;;;;;;9.30;93.02;102975.00;5076604;28;20379;-65
2022/03/17 11:05:19;;;;;;;16.55;3.30;;;;;;;9.22;93.42;102977.31;5076416;28;20029;-66
2022/03/17 11:07:48;;;;;;;19.10;3.47;;;;;;;9.27;90.97;102983.69;5075442;28;20469;-65
2022/03/17 11:10:16;;;;;;;18.63;3.30;;;;;;;9.42;88.21;102981.72;5078956;28;20459;-65
2022/03/17 11:12:44;;;;;;;14.75;3.05;;;;;;;9.61;87.77;102995.72;5079814;28;20056;-65
2022/03/17 11:15:10;;;;;;;19.50;3.20;;;;;;;10.06;87.27;102987.91;5078690;28;20032;-65
2022/03/17 11:17:40;;;;;;;17.92;3.30;;;;;;;10.58;84.04;102986.41;5073937;28;20097;-65
2022/03/17 11:20:08;;;;;;;15.40;3.10;;;;;;;10.81;77.33;102992.59;5076414;28;20024;-66
2022/03/17 11:22:35;;;;;;;13.35;3.03;;;;;;;10.84;75.98;102993.56;5074646;28;20107;-66
2022/03/17 11:25:28;;;;;;;16.75;3.00;;;;;;;10.50;76.91;102995.81;5078519;28;20044;-66